Time;durP1;ratioP1;P1;durP2;ratioP2;P2;SDS_P1;SDS_P2;PMS_P1;PMS_P2;Temp;Humidity;BMP_temperature;BMP_pressure;BME280_temperature;BME280_humidity;BME280_pressure;Samples;Min_cycle;Max_cycle;Signal;HPM_P1;HPM_P2
2023/04/01 00:01:21;;;;;;;10.15;6.55;;;10.00;99.90;;;;;;4939600;28;20062;-90
2023/04/01 00:03:47;;;;;;;11.18;6.60;;;10.10;99.90;;;;;;4939435;28;20038;-90
2023/04/01 00:06:14;;;;;;;12.90;6.90;;;10.00;99.90;;;;;;4939945;28;20043;-89
2023/04/01 00:08:40;;;;;;;8.55;6.78;;;10.10;99.90;;;;;;4939468;28;20047;-89
2023/04/01 00:11:06;;;;;;;9.32;6.75;;;10.00;99.90;;;;;;4939521;28;20062;-90
2023/04/01 00:13:32;;;;;;;10.88;7.43;;;10.00;99.90;;;;;;4939605;28;20039;-90
2023/04/01 00:15:57;;;;;;;8.60;6.63;;;10.00;99.90;;;;;;4939580;28;20092;-90
2023/04/01 00:18:24;;;;;;;10.68;6.95;;;10.00;99.90;;;;;;4939496;28;20518;-89
2023/04/01 00:20:51;;;;;;;10.25;7.10;;;10.00;99.90;;;;;;4939063;28;20043;-89
2023/04/01 00:23:17;;;;;;;12.82;6.88;;;10.00;99.90;;;;;;4939001;28;20054;-89
2023/04/01 00:25:47;;;;;;;11.02;6.88;;;10.00;99.90;;;;;;4939375;28;20117;-89
2023/04/01 00:28:15;;;;;;;11.07;6.80;;;10.00;99.90;;;;;;4939572;28;20039;-89
2023/04/01 00:30:43;;;;;;;10.70;7.10;;;10.00;99.90;;;;;;4935928;29;20182;-90
2023/04/01 00:33:16;;;;;;;9.52;6.82;;;10.00;99.90;;;;;;4938119;28;20047;-89
2023/04/01 00:35:42;;;;;;;14.55;7.95;;;9.90;99.90;;;;;;4938448;28;20160;-91
2023/04/01 00:38:08;;;;;;;11.15;7.72;;;10.00;99.90;;;;;;4938092;28;20487;-89
2023/04/01 00:40:37;;;;;;;13.30;7.28;;;10.00;99.90;;;;;;4938944;28;20051;-89
2023/04/01 00:43:03;;;;;;;14.32;8.00;;;10.00;99.90;;;;;;4938988;28;20246;-90
2023/04/01 00:45:34;;;;;;;10.07;7.68;;;10.00;99.90;;;;;;4937669;28;20120;-89
2023/04/01 00:48:05;;;;;;;10.88;7.22;;;10.00;99.90;;;;;;4951208;28;20046;-89
2023/04/01 00:50:33;;;;;;;13.73;7.78;;;9.90;99.90;;;;;;4938493;28;20051;-90
2023/04/01 00:53:01;;;;;;;11.55;7.70;;;10.00;99.90;;;;;;4939623;28;20116;-89
2023/04/01 00:55:32;;;;;;;13.30;8.10;;;9.90;99.90;;;;;;4938734;28;20137;-89
2023/04/01 00:58:00;;;;;;;13.48;8.15;;;10.30;99.90;;;;;;4938547;28;20045;-90
2023/04/01 01:00:27;;;;;;;10.07;7.47;;;9.90;99.90;;;;;;4939671;28;20162;-89
2023/04/01 01:02:54;;;;;;;9.68;7.70;;;10.00;99.90;;;;;;4944643;28;20042;-90
2023/04/01 01:05:30;;;;;;;12.05;7.75;;;9.90;99.90;;;;;;4941291;28;20065;-90
2023/04/01 01:08:17;;;;;;;11.73;8.20;;;9.90;99.90;;;;;;4938678;28;20053;-90
2023/04/01 01:10:48;;;;;;;11.98;8.55;;;9.90;99.90;;;;;;4938153;28;20054;-90
2023/04/01 01:13:21;;;;;;;11.23;8.50;;;9.90;99.90;;;;;;4938075;28;20101;-90
2023/04/01 01:15:56;;;;;;;16.25;8.07;;;9.90;99.90;;;;;;4939145;28;20051;-90
2023/04/01 01:18:39;;;;;;;11.38;8.40;;;9.90;99.90;;;;;;4938089;28;20097;-89
2023/04/01 01:21:07;;;;;;;10.80;8.85;;;9.90;99.90;;;;;;4937947;28;20089;-90
2023/04/01 01:24:05;;;;;;;11.88;8.88;;;9.90;99.90;;;;;;4938737;28;20414;-90
2023/04/01 01:26:52;;;;;;;15.43;9.35;;;9.90;99.90;;;;;;4940338;28;20073;-90
2023/04/01 01:29:42;;;;;;;13.90;9.18;;;9.90;99.90;;;;;;4944927;28;20042;-91
2023/04/01 01:32:32;;;;;;;15.10;8.88;;;9.90;99.90;;;;;;4938218;28;20430;-90
2023/04/01 01:35:06;;;;;;;12.82;8.93;;;9.90;99.90;;;;;;4926011;28;20046;-90
2023/04/01 01:37:33;;;;;;;11.45;8.90;;;9.90;99.90;;;;;;4938069;28;20046;-90
2023/04/01 01:40:03;;;;;;;13.07;10.00;;;9.90;99.90;;;;;;4937866;28;20061;-89
2023/04/01 01:42:33;;;;;;;11.68;8.90;;;9.90;99.90;;;;;;4938725;28;20050;-90
2023/04/01 01:45:01;;;;;;;13.73;9.38;;;9.90;99.90;;;;;;4938353;28;20043;-90
2023/04/01 01:47:28;;;;;;;14.88;10.23;;;9.90;99.90;;;;;;4937583;28;20082;-89
2023/04/01 01:49:55;;;;;;;15.98;10.13;;;9.90;99.90;;;;;;4937333;28;20594;-89
2023/04/01 01:52:22;;;;;;;10.25;8.55;;;9.90;99.90;;;;;;4937105;28;20554;-92
2023/04/01 01:54:51;;;;;;;12.18;9.45;;;9.80;99.90;;;;;;4937132;28;20438;-90
2023/04/01 01:57:19;;;;;;;14.10;9.02;;;9.80;99.90;;;;;;4937462;28;20035;-90
2023/04/01 01:59:48;;;;;;;13.40;9.55;;;9.80;99.90;;;;;;4937606;28;20499;-90
2023/04/01 02:02:15;;;;;;;13.32;8.93;;;9.80;99.90;;;;;;4936746;28;20027;-90
2023/04/01 02:04:44;;;;;;;15.80;9.63;;;9.90;99.90;;;;;;4937545;28;20459;-89
2023/04/01 02:07:16;;;;;;;17.45;9.38;;;9.80;99.90;;;;;;4950024;28;20038;-90
2023/04/01 02:09:43;;;;;;;14.48;9.60;;;9.80;99.90;;;;;;4936935;28;20059;-89
2023/04/01 02:12:12;;;;;;;14.25;9.23;;;9.80;99.90;;;;;;4937832;28;20093;-89
2023/04/01 02:14:53;;;;;;;20.98;8.90;;;9.80;99.90;;;;;;4937370;28;20043;-90
2023/04/01 02:17:21;;;;;;;12.18;8.68;;;9.80;99.90;;;;;;4937705;28;20125;-89
2023/04/01 02:19:54;;;;;;;11.63;9.10;;;9.80;99.90;;;;;;4937924;28;20061;-89
2023/04/01 02:22:23;;;;;;;15.85;9.35;;;9.80;99.90;;;;;;4936429;28;20475;-90
2023/04/01 02:24:52;;;;;;;13.48;8.35;;;9.80;99.90;;;;;;4937671;28;20043;-89
2023/04/01 02:27:18;;;;;;;11.77;8.65;;;9.70;99.90;;;;;;4937415;28;20505;-89
2023/04/01 02:29:44;;;;;;;12.15;8.88;;;9.70;99.90;;;;;;4936414;28;20290;-89
2023/04/01 02:32:12;;;;;;;15.48;9.43;;;9.80;99.90;;;;;;4937350;28;20055;-89
2023/04/01 02:34:38;;;;;;;12.23;9.50;;;9.70;99.90;;;;;;4937212;28;20070;-89
2023/04/01 02:37:04;;;;;;;13.45;9.45;;;9.70;99.90;;;;;;4936302;28;20035;-89
2023/04/01 02:39:30;;;;;;;13.07;8.85;;;9.70;99.90;;;;;;4937540;28;20085;-89
2023/04/01 02:41:56;;;;;;;14.65;9.50;;;9.70;99.90;;;;;;4937445;28;20082;-89
2023/04/01 02:44:22;;;;;;;17.15;10.50;;;9.70;99.90;;;;;;4939190;28;20086;-90
2023/04/01 02:46:47;;;;;;;19.42;10.65;;;9.70;99.90;;;;;;4941393;28;20047;-90
2023/04/01 02:49:13;;;;;;;17.08;10.98;;;9.70;99.90;;;;;;4940935;28;20047;-90
2023/04/01 02:51:39;;;;;;;16.85;11.55;;;9.60;99.90;;;;;;4940337;28;20043;-90
2023/04/01 02:54:05;;;;;;;16.65;12.50;;;9.70;99.90;;;;;;4941074;28;20513;-90
2023/04/01 02:56:32;;;;;;;20.38;13.18;;;9.60;99.90;;;;;;4940600;28;20046;-89
2023/04/01 02:58:58;;;;;;;21.85;13.60;;;9.70;99.90;;;;;;4940406;28;20054;-89
2023/04/01 03:01:23;;;;;;;16.70;13.55;;;9.60;99.90;;;;;;4940439;28;20479;-91
2023/04/01 03:03:49;;;;;;;19.58;13.70;;;9.60;99.90;;;;;;4954256;28;20053;-89
2023/04/01 03:06:16;;;;;;;18.90;13.80;;;9.60;99.90;;;;;;4940054;28;20049;-90
2023/04/01 03:08:43;;;;;;;20.30;14.95;;;9.60;99.90;;;;;;4940809;28;20135;-89
2023/04/01 03:11:09;;;;;;;18.83;14.02;;;9.60;99.90;;;;;;4940001;28;20051;-90
2023/04/01 03:13:45;;;;;;;21.63;13.85;;;9.50;99.90;;;;;;4924755;28;20186;-90
2023/04/01 03:16:11;;;;;;;20.30;13.73;;;9.50;99.90;;;;;;4940673;28;20065;-89
2023/04/01 03:18:37;;;;;;;19.30;14.43;;;9.50;99.90;;;;;;4939672;28;20452;-90
2023/04/01 03:21:15;;;;;;;23.95;15.35;;;9.50;99.90;;;;;;4939660;28;20520;-89
2023/04/01 03:23:41;;;;;;;19.80;14.75;;;9.50;99.90;;;;;;4940110;28;20579;-89
2023/04/01 03:26:07;;;;;;;21.23;15.10;;;9.50;99.90;;;;;;4939906;28;20129;-90
2023/04/01 03:28:43;;;;;;;23.35;15.35;;;9.40;99.90;;;;;;4940683;28;20055;-90
2023/04/01 03:31:08;;;;;;;22.73;16.42;;;9.50;99.90;;;;;;4939696;28;20057;-90
2023/04/01 03:33:34;;;;;;;22.20;15.45;;;9.40;99.90;;;;;;4939720;28;20043;-90
2023/04/01 03:36:00;;;;;;;28.15;16.45;;;9.50;99.90;;;;;;4940101;28;20047;-89
2023/04/01 03:38:29;;;;;;;24.60;16.13;;;9.70;99.90;;;;;;4941581;28;20050;-90
2023/04/01 03:40:55;;;;;;;24.98;16.05;;;9.50;99.90;;;;;;4940565;28;20050;-90
2023/04/01 03:43:21;;;;;;;28.92;16.67;;;9.50;99.90;;;;;;4940116;28;20137;-90
2023/04/01 03:45:48;;;;;;;26.83;15.77;;;9.50;99.90;;;;;;4939916;28;20376;-90
2023/04/01 03:48:15;;;;;;;24.60;15.85;;;9.50;99.90;;;;;;4939196;28;20043;-90
2023/04/01 03:50:41;;;;;;;23.85;15.68;;;9.40;99.90;;;;;;4939695;28;20073;-90
2023/04/01 03:53:19;;;;;;;27.05;16.05;;;9.40;99.90;;;;;;4940170;28;20062;-90
2023/04/01 03:55:45;;;;;;;23.35;16.25;;;9.50;99.90;;;;;;4939076;28;20039;-90
2023/04/01 03:58:11;;;;;;;23.58;16.50;;;9.50;99.90;;;;;;4939334;28;20053;-90
2023/04/01 04:00:36;;;;;;;24.75;15.80;;;9.40;99.90;;;;;;4938880;28;20467;-90
2023/04/01 04:03:02;;;;;;;21.55;14.95;;;9.50;99.90;;;;;;4939535;28;20042;-90
2023/04/01 04:05:28;;;;;;;25.88;16.55;;;9.50;99.90;;;;;;4939714;28;20096;-90
2023/04/01 04:07:54;;;;;;;22.77;15.48;;;9.50;99.90;;;;;;4946670;28;20054;-90
2023/04/01 04:10:22;;;;;;;25.95;16.30;;;9.40;99.90;;;;;;4941287;28;20053;-90
2023/04/01 04:12:49;;;;;;;23.60;16.42;;;9.50;99.90;;;;;;4939966;28;20058;-90
2023/04/01 04:15:15;;;;;;;26.67;17.65;;;9.50;99.90;;;;;;4938935;28;20046;-89
2023/04/01 04:17:47;;;;;;;25.35;16.58;;;9.50;99.90;;;;;;4939722;28;20050;-89
2023/04/01 04:20:14;;;;;;;25.75;16.60;;;9.40;99.90;;;;;;4939514;28;20488;-89
2023/04/01 04:22:40;;;;;;;25.02;16.90;;;9.50;99.90;;;;;;4939226;28;20106;-90
2023/04/01 04:25:06;;;;;;;24.77;16.42;;;9.50;99.90;;;;;;4939567;28;20074;-90
2023/04/01 04:27:32;;;;;;;24.02;16.13;;;9.50;99.90;;;;;;4948927;28;20039;-90
2023/04/01 04:30:00;;;;;;;25.15;17.00;;;9.50;99.90;;;;;;4939717;28;20498;-90
2023/04/01 04:32:39;;;;;;;23.08;16.02;;;9.50;99.90;;;;;;4939122;28;20527;-90
2023/04/01 04:35:06;;;;;;;27.33;17.15;;;9.50;99.90;;;;;;4938906;28;20194;-90
2023/04/01 04:37:32;;;;;;;26.10;17.05;;;9.50;99.90;;;;;;4936144;28;20055;-90
2023/04/01 04:39:57;;;;;;;28.70;17.38;;;9.50;99.90;;;;;;4939271;28;20038;-91
2023/04/01 04:42:23;;;;;;;25.20;18.33;;;9.50;99.90;;;;;;4937646;28;20085;-90
2023/04/01 04:44:49;;;;;;;26.98;18.23;;;9.50;99.90;;;;;;4938985;28;20586;-90
2023/04/01 04:47:20;;;;;;;27.40;18.38;;;9.50;99.90;;;;;;4938675;28;20047;-89
2023/04/01 04:49:46;;;;;;;24.50;17.52;;;9.70;99.90;;;;;;4938777;28;20142;-91
2023/04/01 04:52:23;;;;;;;27.83;18.98;;;9.50;99.90;;;;;;4938002;28;20062;-90
2023/04/01 04:54:48;;;;;;;26.58;19.75;;;9.50;99.90;;;;;;4939306;28;20055;-90
2023/04/01 04:57:20;;;;;;;26.25;19.45;;;9.50;99.90;;;;;;4937956;28;20124;-89
2023/04/01 04:59:46;;;;;;;26.75;19.17;;;9.50;99.90;;;;;;4938871;28;20089;-90
2023/04/01 05:02:12;;;;;;;29.83;19.15;;;9.60;99.90;;;;;;4938393;28;20230;-90
2023/04/01 05:04:37;;;;;;;29.52;19.50;;;9.50;99.90;;;;;;4938567;28;20058;-91
2023/04/01 05:07:03;;;;;;;32.53;19.60;;;9.60;99.90;;;;;;4934208;28;20137;-91
2023/04/01 05:09:34;;;;;;;33.22;19.77;;;9.60;99.90;;;;;;4938320;28;20050;-90
2023/04/01 05:12:28;;;;;;;31.60;20.08;;;9.60;99.90;;;;;;4937984;28;20049;-91
2023/04/01 05:14:54;;;;;;;30.42;19.58;;;9.50;99.90;;;;;;4938339;28;20050;-91
2023/04/01 05:17:20;;;;;;;30.58;19.63;;;9.60;99.90;;;;;;4938099;28;20051;-92
2023/04/01 05:19:49;;;;;;;32.60;20.73;;;9.60;99.90;;;;;;4938035;28;20047;-89
2023/04/01 05:22:14;;;;;;;31.50;20.73;;;9.50;99.90;;;;;;4937250;28;20047;-91
2023/04/01 05:24:40;;;;;;;25.83;18.58;;;9.60;99.90;;;;;;4937634;28;20165;-91
2023/04/01 05:27:15;;;;;;;27.55;17.10;;;9.50;99.90;;;;;;4943769;28;20047;-92
2023/04/01 05:29:52;;;;;;;30.60;18.13;;;9.60;99.90;;;;;;4941948;28;20166;-91
2023/04/01 05:32:18;;;;;;;26.70;16.77;;;9.50;99.90;;;;;;4937148;28;20047;-90
2023/04/01 05:34:44;;;;;;;29.35;17.35;;;9.50;99.90;;;;;;4938607;28;20047;-91
2023/04/01 05:37:18;;;;;;;23.05;16.05;;;9.50;99.90;;;;;;4936856;28;20201;-90
2023/04/01 05:39:50;;;;;;;23.23;16.38;;;9.60;99.90;;;;;;4937225;28;20078;-90
2023/04/01 05:42:28;;;;;;;25.23;16.10;;;9.50;99.90;;;;;;4937731;28;20047;-90
2023/04/01 05:44:55;;;;;;;25.85;16.65;;;9.60;99.90;;;;;;4937280;28;20137;-90
2023/04/01 05:47:23;;;;;;;26.83;17.10;;;9.60;99.90;;;;;;4958160;28;20463;-90
2023/04/01 05:49:49;;;;;;;24.88;15.85;;;9.60;99.90;;;;;;4934346;29;20082;-91
2023/04/01 05:52:15;;;;;;;25.35;16.15;;;9.60;99.90;;;;;;4935416;28;20062;-91
2023/04/01 05:55:00;;;;;;;26.00;16.38;;;9.70;99.90;;;;;;4933172;29;20126;-91
2023/04/01 05:57:26;;;;;;;25.00;15.95;;;9.60;99.90;;;;;;4935323;28;20057;-91
2023/04/01 06:00:08;;;;;;;23.73;16.48;;;9.60;99.90;;;;;;4931175;28;20046;-90
2023/04/01 06:02:43;;;;;;;24.23;16.73;;;9.60;99.90;;;;;;4930743;28;20062;-90
2023/04/01 06:05:25;;;;;;;25.25;16.15;;;9.70;99.90;;;;;;4932753;28;20110;-91
2023/04/01 06:07:55;;;;;;;25.77;16.73;;;9.80;99.90;;;;;;4931371;28;20051;-90
2023/04/01 06:10:23;;;;;;;26.50;18.25;;;9.80;99.90;;;;;;4936558;28;20534;-90
2023/04/01 06:13:04;;;;;;;30.48;19.42;;;9.80;99.90;;;;;;4932536;28;20451;-90
2023/04/01 06:15:51;;;;;;;27.38;19.88;;;9.80;99.90;;;;;;4936531;28;20050;-95
2023/04/01 06:18:51;;;;;;;29.65;20.08;;;9.80;99.90;;;;;;4937282;28;20046;-92
2023/04/01 06:21:25;;;;;;;33.25;21.73;;;9.40;99.90;;;;;;4936627;28;20129;-91
2023/04/01 06:24:07;;;;;;;28.67;20.88;;;9.90;99.90;;;;;;4931175;28;20463;-94
2023/04/01 06:26:45;;;;;;;32.30;21.73;;;9.90;99.90;;;;;;4935058;28;20067;-92
2023/04/01 06:29:31;;;;;;;29.23;19.88;;;10.00;99.90;;;;;;4937566;28;20047;-92
2023/04/01 06:32:01;;;;;;;28.50;21.42;;;9.90;99.90;;;;;;4931412;29;20051;-92
2023/04/01 06:34:56;;;;;;;30.63;21.55;;;9.90;99.90;;;;;;4924857;28;20124;-94
2023/04/01 06:37:50;;;;;;;34.80;20.77;;;10.00;99.90;;;;;;4929662;28;20062;-91
2023/04/01 06:40:26;;;;;;;;;;;10.00;99.90;;;;;;4926769;29;20047;-93
2023/04/01 06:43:14;;;;;;;29.67;21.15;;;9.90;99.90;;;;;;4947977;29;19923;-91
2023/04/01 06:45:49;;;;;;;29.45;21.80;;;10.10;99.90;;;;;;4933596;28;20047;-91
2023/04/01 06:48:44;;;;;;;30.80;21.40;;;10.10;99.90;;;;;;4938386;28;20059;-91
2023/04/01 06:51:24;;;;;;;30.10;20.73;;;10.00;99.90;;;;;;4936138;28;20057;-91
2023/04/01 06:53:54;;;;;;;28.15;20.73;;;10.10;99.90;;;;;;4937068;28;20055;-90
2023/04/01 06:56:24;;;;;;;31.10;20.90;;;10.10;99.90;;;;;;4936893;28;20616;-92
2023/04/01 06:58:55;;;;;;;28.40;21.48;;;10.10;99.90;;;;;;4937475;28;20455;-92
2023/04/01 07:01:32;;;;;;;29.20;21.83;;;10.10;99.90;;;;;;4936656;28;20134;-92
2023/04/01 07:04:05;;;;;;;27.75;20.00;;;10.10;99.90;;;;;;4937253;28;20039;-92
2023/04/01 07:06:37;;;;;;;25.65;20.50;;;10.10;99.90;;;;;;4936815;28;20043;-91
2023/04/01 07:09:10;;;;;;;27.40;20.33;;;10.10;99.90;;;;;;4949773;28;20034;-92
2023/04/01 07:11:38;;;;;;;28.25;20.95;;;10.10;99.90;;;;;;4936762;28;20059;-91
2023/04/01 07:14:13;;;;;;;26.02;20.85;;;10.20;99.90;;;;;;4936679;28;20542;-91
2023/04/01 07:17:00;;;;;;;28.75;21.50;;;10.20;99.90;;;;;;4936604;28;20079;-91
2023/04/01 07:19:33;;;;;;;28.95;21.08;;;10.20;99.90;;;;;;4943108;28;20163;-91
2023/04/01 07:22:14;;;;;;;24.20;20.57;;;10.20;99.90;;;;;;4940063;28;20035;-89
2023/04/01 07:24:43;;;;;;;25.52;21.13;;;10.20;99.90;;;;;;4939540;28;20470;-90
2023/04/01 07:27:13;;;;;;;27.67;20.75;;;10.20;99.90;;;;;;4935743;28;20047;-90
2023/04/01 07:29:39;;;;;;;26.73;19.42;;;10.30;99.90;;;;;;4928837;28;20117;-89
2023/04/01 07:32:15;;;;;;;24.20;18.95;;;10.30;99.90;;;;;;4939291;28;20046;-91
2023/04/01 07:34:50;;;;;;;24.30;18.30;;;10.30;99.90;;;;;;4940237;28;20045;-92
2023/04/01 07:37:24;;;;;;;23.80;17.98;;;10.30;99.90;;;;;;4939131;28;20057;-90
2023/04/01 07:39:58;;;;;;;24.92;18.10;;;10.40;99.90;;;;;;4932785;28;20126;-90
2023/04/01 07:42:48;;;;;;;25.42;19.55;;;10.30;99.90;;;;;;4932673;28;20054;-90
2023/04/01 07:45:33;;;;;;;20.25;17.00;;;10.40;99.90;;;;;;4936641;28;20057;-89
2023/04/01 07:48:10;;;;;;;20.80;16.80;;;10.40;99.90;;;;;;4937449;28;20055;-89
2023/04/01 07:50:42;;;;;;;21.08;16.92;;;10.40;99.90;;;;;;4925022;28;20050;-88
2023/04/01 07:53:12;;;;;;;22.63;17.20;;;10.50;99.90;;;;;;4934823;28;20121;-90
2023/04/01 07:55:45;;;;;;;21.33;17.50;;;10.50;99.90;;;;;;4937784;28;20051;-90
2023/04/01 07:58:34;;;;;;;20.20;16.85;;;10.50;99.90;;;;;;4935635;28;20491;-90
2023/04/01 08:01:00;;;;;;;23.20;16.50;;;10.50;99.90;;;;;;4934272;28;20043;-91
2023/04/01 08:03:29;;;;;;;23.23;17.92;;;10.50;99.90;;;;;;4937265;28;20047;-89
2023/04/01 08:05:57;;;;;;;23.85;18.70;;;10.50;99.90;;;;;;4936691;28;20042;-90
2023/04/01 08:08:29;;;;;;;22.73;18.90;;;10.60;99.90;;;;;;4936263;28;20050;-89
2023/04/01 08:11:06;;;;;;;23.48;18.15;;;10.80;99.90;;;;;;4936913;28;20176;-89
2023/04/01 08:13:39;;;;;;;22.88;17.30;;;10.90;99.90;;;;;;4936217;28;20054;-90
2023/04/01 08:16:30;;;;;;;17.88;15.13;;;11.00;99.90;;;;;;4936569;28;20062;-91
2023/04/01 08:19:46;;;;;;;19.52;15.32;;;11.00;99.90;;;;;;4952591;28;20154;-91
2023/04/01 08:22:22;;;;;;;15.50;13.73;;;11.10;99.90;;;;;;4924589;28;20050;-91
2023/04/01 08:24:51;;;;;;;14.70;13.15;;;11.10;99.90;;;;;;4936367;28;20039;-91
2023/04/01 08:27:24;;;;;;;16.23;13.93;;;11.30;99.90;;;;;;4940615;28;20050;-91
2023/04/01 08:30:01;;;;;;;17.30;12.45;;;11.30;99.90;;;;;;4936221;28;20050;-90
2023/04/01 08:32:35;;;;;;;16.27;12.35;;;11.30;99.90;;;;;;4937005;28;20058;-89
2023/04/01 08:35:15;;;;;;;14.73;13.10;;;11.30;99.90;;;;;;4951537;28;20137;-88
2023/04/01 08:37:43;;;;;;;15.43;13.50;;;11.30;99.90;;;;;;4935368;28;20139;-89
2023/04/01 08:40:25;;;;;;;15.40;12.82;;;11.40;99.90;;;;;;4936004;28;20521;-87
2023/04/01 08:43:25;;;;;;;15.40;12.77;;;11.50;99.90;;;;;;4935388;28;20127;-88
2023/04/01 08:46:32;;;;;;;15.85;12.57;;;11.60;99.90;;;;;;4934875;28;20369;-88
2023/04/01 08:49:23;;;;;;;16.45;13.85;;;11.70;99.90;;;;;;4935588;28;20050;-87
2023/04/01 08:52:18;;;;;;;14.80;12.73;;;11.70;99.90;;;;;;4934306;28;20058;-87
2023/04/01 08:55:04;;;;;;;13.93;12.15;;;11.80;99.90;;;;;;4940529;28;20148;-87
2023/04/01 08:57:38;;;;;;;12.55;11.15;;;11.80;99.90;;;;;;4934730;28;20056;-88
2023/04/01 09:00:13;;;;;;;8.60;6.78;;;11.80;99.90;;;;;;4935868;28;20051;-88
2023/04/01 09:03:08;;;;;;;7.90;5.57;;;11.60;99.90;;;;;;4934655;28;20057;-88
2023/04/01 09:05:57;;;;;;;7.82;4.78;;;11.40;99.90;;;;;;4934366;28;20049;-87
2023/04/01 09:08:35;;;;;;;8.02;4.90;;;11.20;99.90;;;;;;4935750;28;20043;-87
2023/04/01 09:11:46;;;;;;;8.15;4.72;;;11.00;99.90;;;;;;4936402;28;20468;-88
2023/04/01 09:14:35;;;;;;;7.38;4.00;;;10.80;99.90;;;;;;4952986;28;20513;-87
2023/04/01 09:17:13;;;;;;;5.68;3.25;;;10.80;99.90;;;;;;4932830;28;20137;-87
2023/04/01 09:20:23;;;;;;;4.55;2.95;;;10.80;99.90;;;;;;4937110;28;20046;-88
2023/04/01 09:22:59;;;;;;;5.75;3.30;;;10.80;99.90;;;;;;4953057;28;20395;-88
2023/04/01 09:25:53;;;;;;;3.92;2.92;;;10.80;99.90;;;;;;4936622;28;20497;-88
2023/04/01 09:28:28;;;;;;;4.40;2.53;;;10.80;99.90;;;;;;4936929;28;20116;-87
2023/04/01 09:31:25;;;;;;;4.30;2.97;;;10.80;99.90;;;;;;4952534;28;20050;-87
2023/04/01 09:34:12;;;;;;;3.88;2.50;;;10.80;99.90;;;;;;4935757;28;20487;-86
2023/04/01 09:36:44;;;;;;;6.10;3.00;;;10.70;99.90;;;;;;4936157;28;20050;-87
2023/04/01 09:39:23;;;;;;;5.15;2.97;;;10.70;99.90;;;;;;4935590;28;20474;-87
2023/04/01 09:42:03;;;;;;;4.72;2.97;;;10.70;99.90;;;;;;4935986;28;20475;-86
2023/04/01 09:44:30;;;;;;;4.80;3.00;;;10.70;99.90;;;;;;4936100;28;20130;-87
2023/04/01 09:47:23;;;;;;;4.53;2.70;;;10.70;99.90;;;;;;4935929;28;20054;-87
2023/04/01 09:50:26;;;;;;;3.70;2.42;;;10.70;99.90;;;;;;4935707;28;20078;-87
2023/04/01 09:53:14;;;;;;;4.15;2.50;;;10.50;99.90;;;;;;4934665;28;20447;-86
2023/04/01 09:55:55;;;;;;;3.30;2.20;;;10.40;99.90;;;;;;4935906;28;20054;-86
2023/04/01 09:58:21;;;;;;;3.90;2.25;;;10.30;99.90;;;;;;4951948;28;20065;-87
2023/04/01 10:00:56;;;;;;;4.60;2.35;;;10.30;99.90;;;;;;4936348;28;20050;-87
2023/04/01 10:03:27;;;;;;;6.13;2.38;;;10.20;99.90;;;;;;4951840;28;20061;-87
2023/04/01 10:06:18;;;;;;;3.40;2.22;;;10.20;99.90;;;;;;4923201;28;20149;-85
2023/04/01 10:09:08;;;;;;;5.20;2.63;;;10.20;99.90;;;;;;4951089;28;20093;-85
2023/04/01 10:11:49;;;;;;;5.93;2.17;;;10.20;99.90;;;;;;4914318;28;20055;-84
2023/04/01 10:14:37;;;;;;;4.90;1.85;;;10.30;99.90;;;;;;4915320;29;20047;-85
2023/04/01 10:17:30;;;;;;;5.78;1.90;;;10.30;99.90;;;;;;4931597;29;20036;-85
2023/04/01 10:20:16;;;;;;;4.15;1.60;;;10.30;99.90;;;;;;4915955;29;20443;-84
2023/04/01 10:23:00;;;;;;;4.82;1.40;;;10.30;99.90;;;;;;4915769;29;20047;-86
2023/04/01 10:25:38;;;;;;;3.15;1.40;;;10.30;99.90;;;;;;4921096;29;20133;-86
2023/04/01 10:28:16;;;;;;;3.28;1.33;;;10.30;99.90;;;;;;4915715;29;20146;-85
2023/04/01 10:31:02;;;;;;;4.20;1.48;;;10.30;99.90;;;;;;4915959;29;20380;-83
2023/04/01 10:33:44;;;;;;;3.15;1.40;;;10.30;99.90;;;;;;4927750;29;20102;-83
2023/04/01 10:36:21;;;;;;;2.92;1.10;;;10.40;99.90;;;;;;4929893;29;20463;-84
2023/04/01 10:38:50;;;;;;;2.58;1.30;;;10.40;99.90;;;;;;4916202;29;20043;-82
2023/04/01 10:41:28;;;;;;;4.35;1.20;;;10.50;99.90;;;;;;4914254;29;20204;-83
2023/04/01 10:44:16;;;;;;;4.30;1.20;;;10.50;99.90;;;;;;4931106;29;20043;-83
2023/04/01 10:47:02;;;;;;;3.17;1.30;;;10.40;99.90;;;;;;4916171;29;20065;-85
2023/04/01 10:49:31;;;;;;;3.42;1.20;;;10.40;99.90;;;;;;4931377;29;20559;-84
2023/04/01 10:52:12;;;;;;;3.33;1.35;;;10.40;99.90;;;;;;4915089;28;20484;-84
2023/04/01 10:54:45;;;;;;;2.28;1.25;;;10.40;99.90;;;;;;4931313;29;20499;-84
2023/04/01 10:57:28;;;;;;;3.47;1.80;;;10.20;99.90;;;;;;4914799;29;20063;-84
2023/04/01 11:00:16;;;;;;;6.43;2.00;;;10.20;99.90;;;;;;4931577;29;20518;-83
2023/04/01 11:03:18;;;;;;;4.50;1.80;;;10.10;99.90;;;;;;4919297;29;20175;-83
2023/04/01 11:05:58;;;;;;;4.28;2.30;;;10.10;99.90;;;;;;4933683;29;20433;-83
2023/04/01 11:09:07;;;;;;;4.07;2.10;;;10.20;99.90;;;;;;4935124;29;20058;-83
2023/04/01 11:12:02;;;;;;;7.03;2.00;;;10.20;99.90;;;;;;4918403;28;20051;-83
2023/04/01 11:15:02;;;;;;;3.60;2.00;;;10.10;99.90;;;;;;4935165;29;20466;-83
2023/04/01 11:18:06;;;;;;;4.15;1.88;;;10.10;99.90;;;;;;4923889;29;20043;-83
2023/04/01 11:21:19;;;;;;;3.83;1.92;;;10.10;99.90;;;;;;4906422;29;20089;-83
2023/04/01 11:23:53;;;;;;;5.28;2.20;;;10.10;99.90;;;;;;4907079;29;20043;-83
2023/04/01 11:26:36;;;;;;;2.38;1.55;;;10.10;99.90;;;;;;4918930;29;20047;-83
2023/04/01 11:29:12;;;;;;;4.68;1.60;;;10.20;99.90;;;;;;4934931;29;20323;-84
2023/04/01 11:31:58;;;;;;;4.78;1.85;;;10.30;99.90;;;;;;4918379;29;20109;-85
2023/04/01 11:34:54;;;;;;;5.05;2.00;;;10.40;99.90;;;;;;4919175;28;20057;-86
2023/04/01 11:37:42;;;;;;;4.40;1.65;;;10.50;99.90;;;;;;4917779;29;20231;-82
2023/04/01 11:40:24;;;;;;;4.70;1.55;;;10.50;99.90;;;;;;4934550;29;20105;-83
2023/04/01 11:43:08;;;;;;;2.40;1.40;;;10.60;99.90;;;;;;4934167;29;20098;-83
2023/04/01 11:45:35;;;;;;;;;;;10.50;99.90;;;;;;4917779;29;20291;-84
2023/04/01 11:48:33;;;;;;;3.10;1.40;;;10.50;99.90;;;;;;4918611;29;19922;-84
2023/04/01 11:51:14;;;;;;;3.80;1.30;;;10.60;99.90;;;;;;4917407;29;20122;-83
2023/04/01 11:53:48;;;;;;;1.85;1.20;;;10.60;99.90;;;;;;4933096;28;20097;-83
2023/04/01 11:56:29;;;;;;;3.42;1.17;;;10.60;99.90;;;;;;4933920;29;20051;-84
2023/04/01 11:59:18;;;;;;;2.33;1.10;;;10.70;99.90;;;;;;4933446;29;20039;-83
2023/04/01 12:02:02;;;;;;;3.50;1.10;;;10.70;99.90;;;;;;4917442;29;20051;-83
2023/04/01 12:04:54;;;;;;;3.25;1.30;;;10.80;99.90;;;;;;4915760;29;20047;-83
2023/04/01 12:07:48;;;;;;;3.70;1.33;;;10.90;99.90;;;;;;4928403;29;20238;-83
2023/04/01 12:10:22;;;;;;;4.07;1.27;;;10.80;99.90;;;;;;4928163;28;20380;-84
2023/04/01 12:13:08;;;;;;;2.95;1.52;;;10.80;99.90;;;;;;4936278;28;20069;-83
2023/04/01 12:15:40;;;;;;;1.48;1.05;;;10.70;99.90;;;;;;4918191;29;20112;-83
2023/04/01 12:18:20;;;;;;;3.50;1.30;;;10.70;99.90;;;;;;4933392;28;20047;-83
2023/04/01 12:21:00;;;;;;;3.53;1.50;;;10.80;99.90;;;;;;4951499;28;20398;-83
2023/04/01 12:23:43;;;;;;;2.65;1.27;;;10.70;99.90;;;;;;4937220;28;20533;-84
2023/04/01 12:26:25;;;;;;;1.98;1.20;;;10.70;99.90;;;;;;4952881;28;20050;-83
2023/04/01 12:28:55;;;;;;;1.95;1.05;;;10.70;99.90;;;;;;4936307;28;20086;-83
2023/04/01 12:31:42;;;;;;;2.15;1.20;;;10.70;99.90;;;;;;4952325;28;20238;-83
2023/04/01 12:34:39;;;;;;;3.25;1.05;;;10.70;99.90;;;;;;4948135;28;20135;-82
2023/04/01 12:37:31;;;;;;;3.67;1.40;;;10.70;99.90;;;;;;4935880;28;20605;-83
2023/04/01 12:40:06;;;;;;;2.22;1.42;;;10.70;99.90;;;;;;4935910;28;20494;-82
2023/04/01 12:42:37;;;;;;;4.50;1.58;;;10.60;99.90;;;;;;4934542;28;20459;-83
2023/04/01 12:45:30;;;;;;;4.10;1.50;;;10.60;99.90;;;;;;4935559;28;20043;-84
2023/04/01 12:48:11;;;;;;;5.60;1.60;;;10.60;99.90;;;;;;4953280;28;20062;-84
2023/04/01 12:51:06;;;;;;;2.88;1.55;;;10.50;99.90;;;;;;4933140;28;20051;-83
2023/04/01 12:53:56;;;;;;;2.03;1.20;;;10.50;99.90;;;;;;4947471;28;20061;-83
2023/04/01 12:56:45;;;;;;;1.67;1.08;;;10.50;99.90;;;;;;4939484;29;20404;-83
2023/04/01 12:59:45;;;;;;;1.90;1.20;;;10.40;99.90;;;;;;4936397;28;20133;-83
2023/04/01 13:02:54;;;;;;;2.88;1.60;;;10.50;99.90;;;;;;4951571;28;20058;-82
2023/04/01 13:05:25;;;;;;;1.88;1.10;;;10.50;99.90;;;;;;4923381;28;20054;-83
2023/04/01 13:08:18;;;;;;;2.58;1.23;;;10.50;99.90;;;;;;4927212;28;20112;-83
2023/04/01 13:11:00;;;;;;;3.33;1.55;;;10.60;99.90;;;;;;4935468;28;20523;-83
2023/04/01 13:13:38;;;;;;;3.90;1.38;;;10.60;99.90;;;;;;4936357;28;20059;-83
2023/04/01 13:16:11;;;;;;;1.67;1.23;;;10.60;99.90;;;;;;4925975;29;20375;-83
2023/04/01 13:18:50;;;;;;;;;;;10.50;99.90;;;;;;4944763;28;20050;-82
2023/04/01 13:21:41;;;;;;;2.33;1.20;;;10.50;99.90;;;;;;4938975;28;19933;-83
2023/04/01 13:24:21;;;;;;;3.15;1.20;;;10.40;99.90;;;;;;4919599;29;20055;-83
2023/04/01 13:26:58;;;;;;;2.28;1.23;;;10.40;99.90;;;;;;4938035;28;20074;-83